Time;durP1;ratioP1;P1;durP2;ratioP2;P2;SDS_P1;SDS_P2;PMS_P1;PMS_P2;Temp;Humidity;BMP_temperature;BMP_pressure;BME280_temperature;BME280_humidity;BME280_pressure;Samples;Min_cycle;Max_cycle;Signal;HPM_P1;HPM_P2
2022/11/13 00:02:10;;;;;;;17.27;9.52;;;9.10;76.10;;;;;;5052273;28;20029;-49
2022/11/13 00:04:36;;;;;;;16.55;9.93;;;9.00;76.20;;;;;;5053212;28;20036;-50
2022/11/13 00:07:02;;;;;;;15.60;10.05;;;9.00;76.00;;;;;;5051676;28;20572;-51
2022/11/13 00:09:27;;;;;;;17.40;10.00;;;9.00;76.20;;;;;;5053203;28;20017;-52
2022/11/13 00:11:53;;;;;;;20.77;10.93;;;8.90;76.50;;;;;;5053266;28;20024;-50
2022/11/13 00:14:19;;;;;;;16.52;10.55;;;8.90;76.70;;;;;;5053233;28;20160;-50
2022/11/13 00:16:44;;;;;;;18.17;10.40;;;8.80;77.00;;;;;;5053357;28;20029;-51
2022/11/13 00:19:10;;;;;;;18.80;10.35;;;8.80;77.00;;;;;;5053285;28;20029;-48
2022/11/13 00:21:35;;;;;;;16.90;9.88;;;8.80;77.20;;;;;;5053374;28;20483;-51
2022/11/13 00:24:01;;;;;;;14.23;8.95;;;8.80;76.90;;;;;;5052008;28;20033;-52
2022/11/13 00:26:29;;;;;;;16.27;9.95;;;8.70;76.50;;;;;;5053023;28;20033;-49
2022/11/13 00:28:57;;;;;;;15.73;9.35;;;8.70;76.70;;;;;;5055165;28;20138;-53
2022/11/13 00:31:23;;;;;;;16.23;9.07;;;8.60;76.90;;;;;;5056806;28;20024;-52
2022/11/13 00:33:50;;;;;;;14.02;9.80;;;8.60;77.30;;;;;;5056961;28;20468;-52
2022/11/13 00:36:27;;;;;;;18.13;9.23;;;8.50;77.40;;;;;;5056882;28;20029;-51
2022/11/13 00:38:54;;;;;;;16.67;9.60;;;8.40;77.40;;;;;;5055695;28;20033;-49
2022/11/13 00:41:21;;;;;;;19.85;10.32;;;8.50;77.20;;;;;;5057007;28;20384;-51
2022/11/13 00:43:46;;;;;;;15.73;9.38;;;8.50;76.90;;;;;;5055747;28;20542;-52
2022/11/13 00:46:12;;;;;;;21.35;12.52;;;8.50;76.90;;;;;;5056915;28;20028;-52
2022/11/13 00:48:38;;;;;;;14.90;8.90;;;8.50;77.10;;;;;;5056610;28;20029;-49
2022/11/13 00:51:04;;;;;;;16.70;9.93;;;8.50;77.00;;;;;;5056628;28;20021;-50
2022/11/13 00:53:29;;;;;;;17.80;8.65;;;8.50;76.70;;;;;;5056819;28;20096;-49
2022/11/13 00:55:56;;;;;;;17.70;10.02;;;8.40;77.10;;;;;;5057214;28;20025;-50
2022/11/13 00:58:21;;;;;;;19.27;9.40;;;8.30;77.60;;;;;;5056732;28;20025;-51
2022/11/13 01:00:48;;;;;;;16.30;9.65;;;8.40;76.80;;;;;;5056564;28;20520;-51
2022/11/13 01:03:16;;;;;;;18.98;11.30;;;8.40;76.80;;;;;;5056548;28;20025;-49
2022/11/13 01:05:43;;;;;;;18.88;9.82;;;8.50;77.00;;;;;;5056419;28;20491;-58
2022/11/13 01:08:11;;;;;;;17.85;9.32;;;8.50;76.70;;;;;;5056701;28;20389;-51
2022/11/13 01:10:43;;;;;;;20.10;9.07;;;8.40;76.80;;;;;;5055069;28;20017;-52
2022/11/13 01:13:09;;;;;;;16.42;9.00;;;8.50;77.00;;;;;;5055337;28;20059;-50
2022/11/13 01:15:38;;;;;;;13.15;8.80;;;8.40;77.30;;;;;;5055148;28;20082;-49
2022/11/13 01:18:05;;;;;;;17.08;9.82;;;8.30;77.70;;;;;;5056361;28;20025;-51
2022/11/13 01:20:32;;;;;;;18.90;9.60;;;8.30;78.10;;;;;;5055069;28;20415;-54
2022/11/13 01:22:58;;;;;;;17.30;10.15;;;8.30;78.10;;;;;;5054929;28;20033;-53
2022/11/13 01:25:24;;;;;;;21.73;10.27;;;8.30;77.70;;;;;;5054713;28;20122;-53
2022/11/13 01:27:50;;;;;;;17.88;10.13;;;8.30;78.00;;;;;;5056393;28;20487;-51
2022/11/13 01:30:16;;;;;;;13.32;9.00;;;8.30;77.80;;;;;;5056130;28;20103;-52
2022/11/13 01:32:41;;;;;;;17.98;10.35;;;8.30;77.80;;;;;;5056047;28;20500;-55
2022/11/13 01:35:08;;;;;;;16.10;9.95;;;8.30;77.70;;;;;;5055937;28;20021;-51
2022/11/13 01:37:33;;;;;;;19.40;10.15;;;8.30;77.90;;;;;;5055828;28;20031;-52
2022/11/13 01:39:59;;;;;;;18.60;10.27;;;8.30;77.90;;;;;;5055556;28;20024;-52
2022/11/13 01:42:25;;;;;;;16.20;9.93;;;8.30;77.90;;;;;;5056134;28;20520;-52
2022/11/13 01:44:58;;;;;;;21.60;9.40;;;8.30;77.80;;;;;;5055752;28;20029;-51
2022/11/13 01:47:24;;;;;;;20.85;10.02;;;8.30;77.60;;;;;;5055538;28;20082;-50
2022/11/13 01:49:56;;;;;;;17.42;9.82;;;8.30;77.10;;;;;;5055897;28;20381;-49
2022/11/13 01:52:28;;;;;;;13.07;7.97;;;8.40;76.80;;;;;;5055836;28;20104;-53
2022/11/13 01:54:58;;;;;;;17.77;9.57;;;8.40;76.60;;;;;;5055544;28;20021;-55
2022/11/13 01:57:24;;;;;;;18.08;9.73;;;8.40;76.60;;;;;;5054308;28;20116;-52
2022/11/13 01:59:54;;;;;;;15.27;10.45;;;8.40;76.30;;;;;;5055511;28;20108;-51
2022/11/13 02:02:20;;;;;;;13.40;8.82;;;8.50;76.20;;;;;;5054436;28;20108;-49
2022/11/13 02:04:46;;;;;;;16.75;9.65;;;8.50;76.10;;;;;;5053924;28;20118;-53
2022/11/13 02:07:14;;;;;;;15.90;8.70;;;8.60;75.60;;;;;;5055035;28;20519;-48
2022/11/13 02:09:43;;;;;;;15.75;9.02;;;8.60;75.60;;;;;;5055412;28;20017;-52
2022/11/13 02:12:20;;;;;;;18.13;10.13;;;8.60;75.50;;;;;;5055013;28;20056;-52
2022/11/13 02:14:52;;;;;;;16.85;9.80;;;8.40;75.50;;;;;;5055058;28;20481;-53
2022/11/13 02:17:34;;;;;;;22.45;9.80;;;8.20;77.20;;;;;;5055023;28;20025;-50
2022/11/13 02:20:02;;;;;;;15.15;9.23;;;8.30;77.00;;;;;;5055363;28;20029;-50
2022/11/13 02:22:46;;;;;;;15.07;9.45;;;8.30;77.20;;;;;;5053624;28;20028;-49
2022/11/13 02:25:13;;;;;;;17.98;10.43;;;8.20;77.30;;;;;;5053652;28;20029;-49
2022/11/13 02:27:41;;;;;;;18.52;9.25;;;8.00;77.20;;;;;;5054677;28;20029;-49
2022/11/13 02:30:28;;;;;;;18.73;8.63;;;8.00;78.40;;;;;;5054874;28;20031;-51
2022/11/13 02:32:55;;;;;;;14.38;8.90;;;8.10;77.60;;;;;;5054994;28;20025;-49
2022/11/13 02:35:33;;;;;;;13.45;8.68;;;8.10;77.50;;;;;;5055055;28;20068;-52
2022/11/13 02:38:02;;;;;;;14.50;8.43;;;7.80;78.30;;;;;;5054759;28;20025;-48
2022/11/13 02:40:29;;;;;;;17.73;9.15;;;7.80;78.90;;;;;;5054817;28;20029;-48
2022/11/13 02:42:55;;;;;;;17.33;8.73;;;7.90;78.10;;;;;;5054736;28;20033;-48
2022/11/13 02:45:21;;;;;;;15.20;9.05;;;8.00;77.80;;;;;;5054369;28;20377;-49
2022/11/13 02:47:46;;;;;;;16.88;9.23;;;8.00;77.90;;;;;;5055029;28;20400;-48
2022/11/13 02:50:13;;;;;;;13.75;7.97;;;8.00;77.90;;;;;;5052284;28;20025;-48
2022/11/13 02:52:39;;;;;;;11.32;7.07;;;7.90;78.00;;;;;;5054330;28;20381;-49
2022/11/13 02:55:05;;;;;;;18.05;9.10;;;8.00;78.00;;;;;;5054254;28;20025;-51
2022/11/13 02:57:32;;;;;;;13.82;7.55;;;8.00;77.80;;;;;;5054323;28;20032;-49
2022/11/13 02:59:57;;;;;;;13.70;8.43;;;8.00;77.80;;;;;;5054264;28;20381;-48
2022/11/13 03:02:23;;;;;;;16.92;9.43;;;8.10;77.70;;;;;;5054724;28;20032;-50
2022/11/13 03:04:49;;;;;;;12.30;8.55;;;8.00;77.80;;;;;;5052754;28;20025;-51
2022/11/13 03:07:15;;;;;;;15.27;7.70;;;8.10;77.50;;;;;;5054161;28;20048;-49
2022/11/13 03:09:41;;;;;;;11.25;7.63;;;8.00;77.70;;;;;;5054081;28;20048;-50
2022/11/13 03:12:08;;;;;;;13.43;8.02;;;8.00;77.90;;;;;;5053987;28;20057;-54
2022/11/13 03:14:36;;;;;;;11.25;8.10;;;7.90;77.60;;;;;;5053027;28;20025;-50
2022/11/13 03:17:02;;;;;;;16.08;9.15;;;7.70;78.60;;;;;;5053860;28;20052;-49
2022/11/13 03:19:28;;;;;;;13.18;8.73;;;7.70;79.50;;;;;;5054053;28;20056;-49
2022/11/13 03:21:54;;;;;;;13.63;8.00;;;7.50;79.70;;;;;;5054428;28;20418;-50
2022/11/13 03:24:20;;;;;;;16.85;9.32;;;7.50;80.20;;;;;;5054160;28;20039;-49
2022/11/13 03:26:46;;;;;;;17.45;9.73;;;7.50;79.90;;;;;;5053610;28;20116;-50
2022/11/13 03:29:11;;;;;;;18.45;10.63;;;7.40;80.40;;;;;;5053798;28;20053;-49
2022/11/13 03:31:44;;;;;;;14.70;8.45;;;7.40;80.60;;;;;;5052783;28;20037;-49
2022/11/13 03:34:10;;;;;;;17.40;8.95;;;7.30;81.10;;;;;;5052639;28;20090;-50
2022/11/13 03:36:36;;;;;;;18.42;10.88;;;7.20;81.60;;;;;;5052707;28;20053;-51
2022/11/13 03:39:02;;;;;;;18.67;11.07;;;7.10;82.00;;;;;;5053842;28;20030;-48
2022/11/13 03:41:29;;;;;;;17.92;10.80;;;7.00;82.40;;;;;;5053969;28;20139;-49
2022/11/13 03:43:55;;;;;;;18.23;10.15;;;7.00;82.30;;;;;;5052631;28;20029;-50
2022/11/13 03:46:21;;;;;;;18.08;10.77;;;6.80;83.00;;;;;;5052385;28;20033;-50
2022/11/13 03:48:47;;;;;;;18.08;11.10;;;6.90;83.00;;;;;;5053598;28;20079;-49
2022/11/13 03:51:12;;;;;;;21.27;11.95;;;6.70;82.90;;;;;;5053557;28;20021;-53
2022/11/13 03:53:38;;;;;;;24.10;11.00;;;6.80;83.50;;;;;;5053520;28;20022;-48
2022/11/13 03:56:04;;;;;;;16.23;10.43;;;6.80;83.50;;;;;;5053491;28;20128;-50
2022/11/13 03:58:29;;;;;;;17.38;11.32;;;6.70;83.40;;;;;;5053623;28;20021;-49
2022/11/13 04:00:55;;;;;;;16.00;10.90;;;6.50;83.90;;;;;;5053489;28;20045;-49
2022/11/13 04:03:21;;;;;;;14.57;10.27;;;6.50;84.20;;;;;;5053765;28;20501;-48
2022/11/13 04:05:49;;;;;;;20.38;10.15;;;6.50;84.00;;;;;;5051765;28;20135;-50
2022/11/13 04:08:15;;;;;;;20.23;11.25;;;6.60;84.00;;;;;;5052424;28;20414;-49
2022/11/13 04:10:41;;;;;;;19.58;10.63;;;6.70;83.80;;;;;;5053382;28;20092;-50
2022/11/13 04:13:07;;;;;;;18.27;11.57;;;6.70;83.50;;;;;;5053237;28;20174;-50
2022/11/13 04:15:33;;;;;;;14.95;10.60;;;6.70;83.30;;;;;;5053097;28;20461;-50
2022/11/13 04:17:59;;;;;;;19.15;12.18;;;6.70;83.40;;;;;;5053057;28;20083;-51
2022/11/13 04:20:26;;;;;;;18.90;11.48;;;6.70;83.40;;;;;;5053116;28;20040;-49
2022/11/13 04:22:52;;;;;;;19.40;10.57;;;6.60;83.60;;;;;;5052957;28;20052;-49
2022/11/13 04:25:18;;;;;;;19.00;12.07;;;6.50;83.60;;;;;;5053255;28;20075;-52
2022/11/13 04:27:44;;;;;;;17.25;11.05;;;6.40;84.10;;;;;;5053206;28;20025;-52
2022/11/13 04:30:10;;;;;;;18.65;11.50;;;6.30;84.40;;;;;;5054069;28;20032;-50
2022/11/13 04:32:35;;;;;;;14.55;10.00;;;6.40;84.50;;;;;;5052206;28;20104;-50
2022/11/13 04:35:01;;;;;;;16.42;10.07;;;6.40;84.50;;;;;;5052592;28;20025;-49
2022/11/13 04:37:27;;;;;;;19.75;10.25;;;6.40;84.40;;;;;;5053038;28;20025;-51
2022/11/13 04:39:52;;;;;;;17.88;11.45;;;6.50;84.40;;;;;;5052739;28;20029;-50
2022/11/13 04:45:02;;;;;;;19.00;9.98;;;6.70;83.20;;;;;;5052804;28;20067;-50
2022/11/13 04:47:28;;;;;;;17.52;10.18;;;6.60;83.20;;;;;;5052752;28;20029;-51
2022/11/13 04:49:53;;;;;;;16.40;9.95;;;6.50;83.30;;;;;;5053400;28;20214;-50
2022/11/13 04:52:19;;;;;;;14.55;9.77;;;6.50;83.30;;;;;;5052840;28;20063;-48
2022/11/13 04:54:45;;;;;;;16.42;9.73;;;6.50;83.30;;;;;;5052803;28;20075;-49
2022/11/13 04:57:10;;;;;;;17.15;9.73;;;6.50;83.30;;;;;;5051375;28;20054;-51
2022/11/13 04:59:36;;;;;;;20.77;10.07;;;6.50;83.40;;;;;;5052702;28;20370;-50
2022/11/13 05:02:02;;;;;;;16.52;10.48;;;6.40;83.50;;;;;;5053146;28;20021;-53
2022/11/13 05:04:27;;;;;;;18.05;10.93;;;6.50;83.50;;;;;;5052669;28;20083;-50
2022/11/13 05:06:53;;;;;;;16.58;9.75;;;6.50;83.40;;;;;;5052399;28;20136;-49
2022/11/13 05:09:18;;;;;;;16.35;9.95;;;6.50;83.50;;;;;;5053349;28;20449;-49
2022/11/13 05:11:44;;;;;;;15.15;10.23;;;6.40;83.70;;;;;;5053114;28;20031;-50
2022/11/13 05:14:11;;;;;;;15.55;9.88;;;6.30;84.00;;;;;;5053498;28;20039;-51
2022/11/13 05:16:37;;;;;;;18.00;9.05;;;6.40;84.10;;;;;;5056482;28;20025;-49
2022/11/13 05:19:06;;;;;;;18.58;10.88;;;6.50;83.70;;;;;;5056255;28;20081;-51
2022/11/13 05:21:37;;;;;;;13.55;10.35;;;6.50;83.70;;;;;;5054845;28;20025;-50
2022/11/13 05:24:04;;;;;;;17.33;9.98;;;6.40;84.00;;;;;;5054774;28;20475;-49
2022/11/13 05:26:30;;;;;;;15.75;9.55;;;6.40;84.10;;;;;;5055882;28;20051;-50
2022/11/13 05:28:57;;;;;;;17.00;9.88;;;6.40;83.90;;;;;;5056497;28;20425;-50
2022/11/13 05:31:24;;;;;;;14.60;10.25;;;6.30;83.90;;;;;;5055790;28;20135;-52
2022/11/13 05:33:49;;;;;;;18.27;10.20;;;6.20;84.50;;;;;;5055770;28;20075;-50
2022/11/13 05:36:17;;;;;;;18.30;11.25;;;6.20;85.10;;;;;;5056216;28;20503;-51
2022/11/13 05:38:43;;;;;;;15.65;9.68;;;6.30;84.40;;;;;;5054437;28;20171;-49
2022/11/13 05:41:14;;;;;;;14.82;9.68;;;6.30;84.70;;;;;;5055754;28;20504;-50
2022/11/13 05:43:40;;;;;;;17.40;11.02;;;6.30;84.20;;;;;;5056003;28;20048;-49
2022/11/13 05:46:17;;;;;;;16.67;10.90;;;6.30;84.40;;;;;;5055603;28;20033;-50
2022/11/13 05:48:43;;;;;;;14.15;10.32;;;6.30;84.60;;;;;;5055057;28;20079;-51
2022/11/13 05:51:12;;;;;;;20.60;10.23;;;6.30;84.20;;;;;;5038041;28;20044;-49
2022/11/13 05:53:38;;;;;;;15.57;10.45;;;6.20;84.40;;;;;;5055533;28;20031;-53
2022/11/13 05:56:08;;;;;;;15.85;10.48;;;6.10;84.70;;;;;;5054197;28;20032;-52
2022/11/13 05:58:34;;;;;;;22.10;10.88;;;6.10;85.00;;;;;;5055526;28;20469;-51
2022/11/13 06:01:10;;;;;;;17.63;9.80;;;6.00;85.00;;;;;;5055344;28;20472;-48
2022/11/13 06:03:36;;;;;;;16.63;10.07;;;6.00;85.10;;;;;;5055197;28;20072;-48
2022/11/13 06:06:01;;;;;;;14.40;10.00;;;6.00;85.40;;;;;;5055003;28;20467;-51
2022/11/13 06:08:27;;;;;;;17.23;10.45;;;6.10;85.10;;;;;;5055146;28;20052;-49
2022/11/13 06:10:58;;;;;;;14.02;9.60;;;6.20;85.10;;;;;;5037310;28;20103;-51
2022/11/13 06:13:24;;;;;;;15.75;10.43;;;6.30;84.10;;;;;;5055005;28;20021;-51
2022/11/13 06:15:49;;;;;;;16.38;10.80;;;6.30;83.80;;;;;;5055240;28;20031;-49
2022/11/13 06:18:21;;;;;;;13.95;8.88;;;6.30;83.60;;;;;;5055197;28;20032;-50
2022/11/13 06:20:47;;;;;;;13.80;9.75;;;6.30;83.20;;;;;;5055598;28;20032;-49
2022/11/13 06:23:16;;;;;;;13.50;8.75;;;6.40;83.00;;;;;;5055460;28;20465;-52
2022/11/13 16:07:21;;;;;;;16.42;8.43;;;11.50;69.30;;;;;;4992232;28;20505;-53
2022/11/13 16:09:47;;;;;;;14.27;8.85;;;11.40;70.80;;;;;;4991928;28;20414;-51
2022/11/13 16:12:13;;;;;;;21.80;11.30;;;11.70;70.20;;;;;;4991579;28;20093;-53
2022/11/13 16:14:39;;;;;;;15.05;9.55;;;11.80;69.50;;;;;;4991237;28;20022;-49
2022/11/13 16:17:15;;;;;;;11.90;7.25;;;11.90;69.60;;;;;;4990021;28;20050;-49
2022/11/13 16:19:42;;;;;;;24.13;10.15;;;11.90;69.50;;;;;;4991467;28;20034;-50
2022/11/13 16:22:24;;;;;;;14.40;7.55;;;11.80;69.40;;;;;;4991229;28;20026;-50
2022/11/13 16:24:50;;;;;;;11.75;6.95;;;11.80;69.40;;;;;;4989785;28;20041;-49
2022/11/13 16:27:28;;;;;;;12.35;6.85;;;11.80;68.90;;;;;;4990977;28;20022;-50
2022/11/13 16:29:53;;;;;;;12.48;7.13;;;11.90;68.50;;;;;;4991519;28;20128;-51
2022/11/13 16:32:20;;;;;;;7.55;4.82;;;11.50;69.20;;;;;;4989803;28;20027;-50
2022/11/13 16:34:45;;;;;;;18.98;7.97;;;11.80;67.70;;;;;;4989790;28;20025;-51
2022/11/13 16:37:16;;;;;;;9.75;6.10;;;12.30;66.20;;;;;;4991532;28;20122;-52
2022/11/13 16:39:43;;;;;;;11.18;6.35;;;12.30;65.80;;;;;;4990997;28;20022;-50
2022/11/13 16:42:09;;;;;;;9.35;5.35;;;12.30;66.20;;;;;;4990972;28;20482;-52
2022/11/13 16:44:36;;;;;;;8.68;5.85;;;12.20;66.20;;;;;;4991356;28;20030;-51
2022/11/13 16:47:03;;;;;;;10.40;6.15;;;12.10;65.80;;;;;;4989710;28;20121;-49
2022/11/13 16:49:28;;;;;;;9.00;5.80;;;11.70;66.90;;;;;;4989489;28;20027;-51
2022/11/13 16:51:54;;;;;;;8.52;6.05;;;11.50;67.80;;;;;;4990796;28;20026;-52
2022/11/13 16:54:20;;;;;;;10.43;6.10;;;11.50;67.70;;;;;;4990691;28;20023;-50
2022/11/13 16:56:45;;;;;;;10.10;7.00;;;11.40;67.90;;;;;;4990776;28;20027;-50
2022/11/13 16:59:11;;;;;;;9.40;7.22;;;11.60;68.00;;;;;;4990598;28;20081;-51
2022/11/13 17:01:37;;;;;;;9.35;6.05;;;11.80;67.40;;;;;;4990681;28;20054;-50
2022/11/13 17:04:03;;;;;;;11.40;7.75;;;11.90;66.60;;;;;;4990620;28;20053;-51
2022/11/13 17:06:34;;;;;;;14.38;8.60;;;11.90;66.50;;;;;;5003856;28;20042;-51
2022/11/13 17:09:02;;;;;;;9.77;6.65;;;11.90;66.30;;;;;;5009806;28;20490;-51
2022/11/13 17:11:30;;;;;;;10.75;6.90;;;12.00;66.10;;;;;;5009841;28;20081;-49
2022/11/13 17:13:58;;;;;;;9.73;6.43;;;12.00;65.90;;;;;;5009684;28;20024;-51
2022/11/13 17:16:25;;;;;;;9.45;5.63;;;12.00;65.50;;;;;;5009233;28;20532;-51
2022/11/13 17:18:52;;;;;;;8.93;5.28;;;11.90;65.60;;;;;;4996198;28;20105;-52
2022/11/13 17:21:19;;;;;;;8.15;4.97;;;11.80;65.50;;;;;;4996611;28;20072;-51
2022/11/13 17:23:45;;;;;;;7.65;5.20;;;11.80;65.50;;;;;;4996792;28;20034;-51
2022/11/13 17:26:11;;;;;;;11.27;5.85;;;11.80;65.20;;;;;;4996626;28;20023;-51
2022/11/13 17:28:36;;;;;;;9.02;5.88;;;11.80;64.90;;;;;;4995059;28;20033;-50
2022/11/13 17:31:07;;;;;;;11.07;7.40;;;11.80;64.80;;;;;;4996629;28;20030;-51
2022/11/13 17:33:33;;;;;;;;;;;11.90;64.60;;;;;;4996923;28;20411;-49
2022/11/13 17:35:59;;;;;;;10.88;6.35;;;11.90;64.40;;;;;;4996492;28;19960;-50
2022/11/13 17:38:25;;;;;;;10.52;6.68;;;11.80;64.70;;;;;;4996006;28;20033;-51
2022/11/13 17:40:52;;;;;;;11.45;6.72;;;11.70;64.70;;;;;;4996155;28;20030;-52
2022/11/13 17:43:18;;;;;;;15.05;6.47;;;11.60;64.90;;;;;;4995190;28;20121;-53
2022/11/13 17:45:50;;;;;;;12.20;7.60;;;11.70;64.30;;;;;;4995398;28;20454;-51
2022/11/13 17:48:16;;;;;;;12.00;8.23;;;11.70;64.10;;;;;;4996441;28;20022;-54
2022/11/13 17:50:42;;;;;;;12.27;7.82;;;11.60;63.90;;;;;;4996548;28;20019;-52
2022/11/13 17:53:07;;;;;;;12.32;7.93;;;11.60;63.70;;;;;;4995195;28;20022;-52
2022/11/13 17:55:33;;;;;;;8.20;5.82;;;11.50;63.60;;;;;;4995868;28;20071;-49
2022/11/13 17:58:00;;;;;;;12.13;6.25;;;11.50;62.90;;;;;;4995789;28;20081;-52
2022/11/13 18:00:26;;;;;;;8.32;5.40;;;11.50;62.70;;;;;;4995986;28;20035;-52
2022/11/13 18:02:51;;;;;;;9.63;6.57;;;11.70;61.70;;;;;;4995666;28;20041;-50
2022/11/13 18:05:17;;;;;;;10.85;5.68;;;11.80;61.50;;;;;;4994526;28;20047;-49
2022/11/13 18:07:43;;;;;;;8.60;5.88;;;11.60;61.80;;;;;;4996386;28;20026;-49
2022/11/13 18:10:09;;;;;;;9.70;5.72;;;11.50;61.50;;;;;;4995609;28;20360;-50
2022/11/13 18:12:35;;;;;;;8.80;5.93;;;11.50;61.30;;;;;;4995897;28;20027;-51
2022/11/13 18:15:01;;;;;;;6.97;4.93;;;11.50;60.90;;;;;;4995776;28;20395;-49
2022/11/13 18:17:27;;;;;;;7.55;4.95;;;11.50;60.70;;;;;;4995784;28;20081;-49
2022/11/13 18:19:54;;;;;;;6.85;4.63;;;11.40;60.70;;;;;;4995639;28;20132;-50
2022/11/13 18:22:20;;;;;;;8.70;4.97;;;11.50;60.00;;;;;;4994171;28;20031;-49
2022/11/13 18:24:46;;;;;;;6.97;4.35;;;11.60;59.30;;;;;;4995522;28;20028;-49
2022/11/13 18:27:12;;;;;;;6.20;4.10;;;11.60;58.70;;;;;;4995309;28;20030;-50
2022/11/13 18:29:40;;;;;;;5.28;3.78;;;11.60;58.70;;;;;;4994664;28;20018;-51
2022/11/13 18:32:06;;;;;;;6.53;4.50;;;11.60;58.40;;;;;;4995936;28;20022;-51
2022/11/13 18:34:32;;;;;;;5.90;4.03;;;11.60;58.20;;;;;;4994093;28;20105;-49
2022/11/13 18:36:58;;;;;;;6.13;4.00;;;11.60;58.20;;;;;;4995371;28;20491;-48
2022/11/13 18:39:24;;;;;;;6.20;4.20;;;11.50;58.30;;;;;;4995002;28;20027;-52
2022/11/13 18:41:50;;;;;;;7.53;3.92;;;11.40;58.50;;;;;;4995415;28;20084;-51
2022/11/13 18:44:15;;;;;;;8.25;5.40;;;11.40;58.40;;;;;;4994162;28;20037;-52
2022/11/13 18:46:42;;;;;;;8.50;6.07;;;11.40;58.70;;;;;;4995749;28;20379;-49
2022/11/13 18:49:08;;;;;;;10.93;5.43;;;11.30;59.00;;;;;;4995264;28;20026;-49
2022/11/13 18:51:35;;;;;;;7.78;5.38;;;11.30;59.10;;;;;;4995167;28;20161;-48
2022/11/13 18:54:01;;;;;;;6.35;4.55;;;11.20;59.10;;;;;;4995067;28;20026;-52
2022/11/13 18:56:30;;;;;;;7.22;5.35;;;11.10;59.40;;;;;;4993960;28;20072;-52
2022/11/13 18:58:57;;;;;;;7.65;4.82;;;11.00;59.70;;;;;;4995270;28;20105;-49
2022/11/13 19:01:26;;;;;;;8.25;4.55;;;10.90;59.70;;;;;;4995378;28;20038;-52
2022/11/13 19:03:53;;;;;;;7.60;5.95;;;10.80;59.80;;;;;;4994769;28;20022;-49
2022/11/13 19:06:20;;;;;;;7.75;4.55;;;11.00;59.30;;;;;;4994799;28;20042;-49
2022/11/13 19:08:52;;;;;;;9.55;5.70;;;10.90;59.40;;;;;;4994787;28;20023;-51
2022/11/13 19:11:18;;;;;;;8.55;4.65;;;10.80;59.70;;;;;;4994531;28;20097;-51
2022/11/13 19:13:45;;;;;;;7.03;5.03;;;10.80;59.90;;;;;;4995149;28;20053;-51
2022/11/13 19:16:20;;;;;;;7.10;4.68;;;10.70;60.00;;;;;;4995163;28;20072;-48
2022/11/13 19:18:54;;;;;;;9.20;5.53;;;10.70;59.90;;;;;;4995084;28;20027;-57
2022/11/13 19:21:21;;;;;;;7.45;4.68;;;10.40;60.40;;;;;;4994594;28;20050;-53
2022/11/13 19:23:47;;;;;;;9.23;5.53;;;10.30;61.10;;;;;;4994834;28;20154;-51
2022/11/13 19:26:13;;;;;;;7.43;4.95;;;10.30;61.10;;;;;;4994244;28;20494;-51
2022/11/13 19:28:39;;;;;;;8.40;4.90;;;10.20;61.50;;;;;;4994502;28;20475;-50
2022/11/13 19:31:08;;;;;;;7.07;4.28;;;10.20;61.50;;;;;;4994602;28;20030;-50
2022/11/13 19:33:34;;;;;;;5.93;4.00;;;10.00;61.70;;;;;;4994655;28;20463;-50
2022/11/13 19:36:09;;;;;;;5.75;3.88;;;9.90;61.80;;;;;;4994770;28;20065;-51
2022/11/13 19:38:35;;;;;;;5.60;4.32;;;9.90;62.10;;;;;;4994465;28;20062;-51
2022/11/13 19:41:01;;;;;;;6.70;4.50;;;10.00;61.30;;;;;;4994232;28;20031;-49
2022/11/13 19:43:27;;;;;;;9.40;6.18;;;10.10;60.90;;;;;;4993271;28;20037;-52
2022/11/13 19:45:52;;;;;;;6.13;4.30;;;10.00;61.00;;;;;;4994163;28;20128;-51
2022/11/13 19:48:18;;;;;;;5.13;3.67;;;9.80;61.50;;;;;;4993195;28;20030;-50
2022/11/13 19:50:46;;;;;;;5.45;3.70;;;9.60;62.00;;;;;;4994527;28;20049;-49
2022/11/13 19:53:13;;;;;;;11.02;4.28;;;9.60;62.10;;;;;;4994870;28;20489;-50
2022/11/13 19:55:39;;;;;;;5.72;3.67;;;9.70;62.50;;;;;;4994135;28;20033;-53
2022/11/13 19:58:05;;;;;;;4.85;3.78;;;9.70;62.10;;;;;;4994363;28;20038;-50
2022/11/13 20:00:30;;;;;;;7.40;3.70;;;9.70;62.00;;;;;;4994149;28;20034;-50
2022/11/13 20:02:56;;;;;;;8.73;4.20;;;9.60;62.70;;;;;;4994117;28;20510;-51
2022/11/13 20:05:22;;;;;;;7.80;4.68;;;9.70;62.10;;;;;;4993880;28;20046;-50
2022/11/13 20:07:48;;;;;;;6.22;4.55;;;9.70;62.10;;;;;;4994252;28;20023;-51
2022/11/13 20:10:14;;;;;;;9.10;5.32;;;9.60;62.70;;;;;;4994130;28;20092;-50
2022/11/13 20:12:39;;;;;;;9.10;5.63;;;9.40;63.10;;;;;;4993909;28;20022;-53
2022/11/13 20:15:06;;;;;;;7.25;4.90;;;9.30;63.40;;;;;;4994419;28;20022;-51
2022/11/13 20:17:32;;;;;;;10.30;5.80;;;9.30;63.70;;;;;;4994235;28;20026;-51
2022/11/13 20:19:59;;;;;;;9.13;5.00;;;9.20;64.10;;;;;;4994421;28;20027;-50
2022/11/13 20:22:25;;;;;;;6.22;4.35;;;9.10;64.40;;;;;;4993841;28;20113;-51
2022/11/13 20:24:50;;;;;;;6.85;4.63;;;9.10;65.00;;;;;;4993824;28;20106;-54
2022/11/13 20:27:16;;;;;;;10.73;5.32;;;9.10;64.90;;;;;;4994288;28;20100;-50
2022/11/13 20:29:42;;;;;;;9.82;6.70;;;9.00;65.20;;;;;;4993994;28;20030;-49
2022/11/13 20:32:07;;;;;;;7.90;5.43;;;8.90;65.60;;;;;;4992771;28;20072;-51
2022/11/13 20:34:33;;;;;;;7.93;5.82;;;8.80;66.00;;;;;;4993751;28;20379;-52
2022/11/13 20:36:58;;;;;;;11.00;6.63;;;8.80;66.20;;;;;;4993565;28;20038;-52
2022/11/13 20:39:24;;;;;;;9.32;6.28;;;8.80;66.50;;;;;;4993514;28;20109;-50
2022/11/13 20:41:50;;;;;;;11.35;6.70;;;8.70;66.90;;;;;;4993457;28;20019;-49
2022/11/13 20:44:15;;;;;;;8.73;5.95;;;8.60;67.40;;;;;;4992320;28;20022;-53
2022/11/13 20:46:41;;;;;;;17.52;7.32;;;8.30;68.00;;;;;;4993755;28;20027;-50
2022/11/13 20:49:07;;;;;;;10.43;6.32;;;8.30;69.00;;;;;;4994010;28;20053;-51
2022/11/13 20:51:33;;;;;;;10.40;5.32;;;8.40;69.10;;;;;;4993811;28;20443;-55
2022/11/13 20:53:58;;;;;;;9.57;5.30;;;8.40;68.80;;;;;;4997399;28;20436;-51
2022/11/13 20:56:25;;;;;;;6.68;4.82;;;8.40;69.00;;;;;;4997099;28;20026;-54
2022/11/13 20:58:51;;;;;;;10.27;5.38;;;8.30;69.30;;;;;;4997335;28;20030;-49
2022/11/13 21:01:19;;;;;;;9.43;5.22;;;8.30;69.60;;;;;;4996943;28;20030;-49
2022/11/13 21:03:46;;;;;;;12.55;6.53;;;8.30;69.90;;;;;;4997263;28;20030;-49
2022/11/13 21:06:17;;;;;;;8.75;5.18;;;8.30;70.10;;;;;;4997562;28;20038;-51
2022/11/13 21:08:44;;;;;;;8.57;4.97;;;8.20;70.40;;;;;;4997464;28;20382;-50
2022/11/13 21:11:18;;;;;;;13.07;7.45;;;8.10;71.00;;;;;;4997210;28;20382;-51
2022/11/13 21:13:44;;;;;;;12.20;6.40;;;8.00;71.50;;;;;;4997135;28;20061;-49
2022/11/13 21:16:10;;;;;;;9.30;6.40;;;7.90;71.90;;;;;;4997155;28;20591;-51
2022/11/13 21:18:36;;;;;;;11.10;5.97;;;7.90;72.20;;;;;;4998907;28;20386;-50
2022/11/13 21:21:25;;;;;;;12.10;6.75;;;7.90;72.00;;;;;;4996977;28;20110;-49
2022/11/13 21:23:51;;;;;;;10.52;6.15;;;7.90;72.20;;;;;;4996654;28;20022;-53
2022/11/13 21:26:17;;;;;;;8.68;6.30;;;7.80;72.40;;;;;;4995741;28;20081;-53
2022/11/13 21:28:43;;;;;;;10.63;6.25;;;7.80;72.70;;;;;;4995316;28;20027;-49
2022/11/13 21:31:16;;;;;;;11.75;5.32;;;7.80;73.00;;;;;;4996813;28;20030;-51
2022/11/13 21:33:43;;;;;;;10.05;5.88;;;7.80;73.20;;;;;;4996508;28;20018;-49
2022/11/13 21:36:14;;;;;;;16.02;6.18;;;7.80;73.40;;;;;;4996382;28;20034;-50
2022/11/13 21:38:41;;;;;;;13.90;6.18;;;7.80;73.60;;;;;;4996416;28;20022;-48
2022/11/13 21:41:21;;;;;;;7.72;5.10;;;7.70;73.80;;;;;;4997200;28;20065;-48
2022/11/13 21:43:48;;;;;;;8.17;4.97;;;7.60;74.40;;;;;;4996576;28;20030;-49
2022/11/13 21:46:14;;;;;;;11.55;5.90;;;7.70;74.40;;;;;;4996351;28;20332;-49
2022/11/13 21:48:41;;;;;;;7.93;5.38;;;7.60;74.40;;;;;;4996112;28;20030;-49
2022/11/13 21:51:07;;;;;;;9.98;6.07;;;7.50;74.80;;;;;;4996185;28;20475;-50
2022/11/13 21:53:33;;;;;;;13.13;6.43;;;7.50;75.20;;;;;;4996083;28;20023;-48
2022/11/13 21:55:58;;;;;;;7.97;6.00;;;7.40;75.50;;;;;;4996074;28;20080;-52
2022/11/13 21:58:31;;;;;;;9.43;6.30;;;7.50;75.70;;;;;;4995958;28;20030;-50
2022/11/13 22:00:57;;;;;;;9.10;6.43;;;7.50;75.90;;;;;;4996266;28;20034;-49
2022/11/13 22:03:23;;;;;;;10.38;6.30;;;7.50;75.70;;;;;;4996108;28;20557;-52
2022/11/13 22:05:49;;;;;;;11.68;6.25;;;7.20;76.10;;;;;;4995667;28;20049;-50
2022/11/13 22:08:15;;;;;;;10.98;7.53;;;7.30;77.10;;;;;;4995752;28;20026;-50
2022/11/13 22:10:40;;;;;;;9.85;6.55;;;7.30;76.90;;;;;;4994511;28;20026;-50
2022/11/13 22:13:06;;;;;;;9.93;6.90;;;7.30;77.20;;;;;;4994494;28;20026;-50
2022/11/13 22:15:32;;;;;;;9.50;7.20;;;7.20;77.60;;;;;;4995725;28;20053;-52
2022/11/13 22:17:58;;;;;;;12.80;7.07;;;7.10;77.80;;;;;;4995900;28;20030;-50
2022/11/13 22:20:23;;;;;;;12.65;7.30;;;7.00;78.00;;;;;;4995809;28;20030;-53
2022/11/13 22:22:49;;;;;;;15.70;8.05;;;7.00;78.50;;;;;;4995522;28;20034;-50
2022/11/13 22:25:14;;;;;;;12.57;8.15;;;6.90;78.70;;;;;;4995553;28;20033;-50
2022/11/13 22:27:40;;;;;;;13.25;7.90;;;6.80;79.00;;;;;;4995440;28;20045;-49
2022/11/13 22:30:06;;;;;;;12.90;8.25;;;6.80;79.30;;;;;;4995351;28;20019;-53